createdAt,value
2023-01-07T00:04:20.257Z,31.00
2023-01-07T00:18:20.236Z,30.20
2023-01-07T00:32:20.171Z,28.30
2023-01-07T00:46:20.190Z,30.30
2023-01-07T01:00:20.203Z,28.30
2023-01-07T01:15:20.175Z,29.40
2023-01-07T01:29:20.172Z,27.10
2023-01-07T01:43:20.260Z,26.20
2023-01-07T01:57:20.239Z,26.80
2023-01-07T02:11:02.248Z,25.75
2023-01-07T02:18:16.412Z,27.20
2023-01-07T02:35:11.426Z,26.80
2023-01-07T02:49:10.923Z,25.70
2023-01-07T03:03:10.828Z,27.50
2023-01-07T03:17:10.947Z,25.20
2023-01-07T03:31:10.921Z,27.00
2023-01-07T03:45:10.971Z,26.30
2023-01-07T03:59:10.956Z,24.20
2023-01-07T04:13:10.983Z,23.80
2023-01-07T04:27:10.966Z,23.40
2023-01-07T04:41:10.989Z,23.00
2023-01-07T04:55:11.021Z,22.00
2023-01-07T05:09:11.067Z,20.10
2023-01-07T05:23:11.111Z,20.40
2023-01-07T05:37:11.104Z,21.00
2023-01-07T05:51:11.117Z,19.80
2023-01-07T06:05:11.198Z,17.80
2023-01-07T06:19:11.107Z,16.70
2023-01-07T06:33:11.149Z,17.80
2023-01-07T06:47:11.136Z,16.70
2023-01-07T07:02:11.206Z,16.30
2023-01-07T07:17:11.161Z,16.20
2023-01-07T07:32:11.237Z,15.70
2023-01-07T07:47:11.272Z,16.50
2023-01-07T08:02:11.443Z,14.65
2023-01-07T08:18:11.454Z,15.90
2023-01-07T08:33:11.484Z,16.10
2023-01-07T08:48:11.497Z,17.30
2023-01-07T09:03:11.495Z,15.50
2023-01-07T09:18:11.535Z,15.30
2023-01-07T09:33:11.528Z,16.95
2023-01-07T09:48:11.525Z,17.80
2023-01-07T10:03:11.539Z,18.50
2023-01-07T10:18:11.556Z,18.90
2023-01-07T10:33:11.559Z,18.20
2023-01-07T10:48:11.540Z,20.00
2023-01-07T11:03:11.604Z,16.80
2023-01-07T11:18:12.399Z,17.10
2023-01-07T11:33:11.619Z,16.30
2023-01-07T11:48:11.628Z,15.80
2023-01-07T12:03:11.693Z,16.40
2023-01-07T12:18:11.606Z,15.60
2023-01-07T12:33:11.641Z,14.80
2023-01-07T12:48:11.669Z,14.50
2023-01-07T13:03:11.720Z,13.10
2023-01-07T13:18:11.776Z,13.80
2023-01-07T13:33:11.750Z,13.40
2023-01-07T13:48:11.766Z,12.10
2023-01-07T14:03:11.778Z,12.20
2023-01-07T14:18:11.904Z,13.40
2023-01-07T14:33:11.942Z,12.10
2023-01-07T14:48:11.922Z,10.70
2023-01-07T15:03:12.007Z,10.90
2023-01-07T15:18:11.994Z,10.10
2023-01-07T15:33:11.990Z,9.80
2023-01-07T15:49:11.983Z,9.90
2023-01-07T16:04:14.272Z,9.90
2023-01-07T16:19:12.011Z,9.60
2023-01-07T16:33:12.124Z,9.20
2023-01-07T16:47:12.390Z,9.40
2023-01-07T17:01:12.395Z,9.00
2023-01-07T17:15:12.242Z,9.00
2023-01-07T17:29:12.267Z,9.90
2023-01-07T17:43:12.326Z,9.90
2023-01-07T17:57:12.329Z,9.80
2023-01-07T18:11:12.358Z,9.90
2023-01-07T18:25:12.370Z,10.60
2023-01-07T18:39:12.428Z,9.80
2023-01-07T18:53:12.390Z,10.30
2023-01-07T19:07:12.370Z,10.60
2023-01-07T19:21:12.473Z,10.60
2023-01-07T19:35:12.474Z,11.30
2023-01-07T19:49:12.477Z,11.30
2023-01-07T20:03:12.573Z,11.10
2023-01-07T20:17:12.527Z,10.90
2023-01-07T20:31:12.535Z,12.10
2023-01-07T20:45:12.528Z,13.00
2023-01-07T20:59:12.571Z,12.50
2023-01-07T21:13:12.563Z,12.50
2023-01-07T21:27:12.582Z,12.80
2023-01-07T21:41:12.571Z,12.80
2023-01-07T21:55:12.594Z,14.70
2023-01-07T22:09:13.077Z,14.10
2023-01-07T22:23:12.594Z,15.30
2023-01-07T22:37:12.561Z,15.40
2023-01-07T22:51:12.588Z,15.70
2023-01-07T23:06:12.563Z,16.40
2023-01-07T23:20:12.559Z,14.90
2023-01-07T23:34:12.619Z,15.00
2023-01-07T23:48:12.583Z,16.00
